createdAt,value
2019-02-28T00:00:06.625Z,2.70
2019-02-28T00:02:40.310Z,2.60
2019-02-28T00:05:13.649Z,2.60
2019-02-28T00:07:45.604Z,2.50
2019-02-28T00:10:18.455Z,2.40
2019-02-28T00:12:50.358Z,2.40
2019-02-28T00:15:22.200Z,2.30
2019-02-28T00:17:54.014Z,2.30
2019-02-28T00:20:25.941Z,2.30
2019-02-28T00:22:57.752Z,2.20
2019-02-28T00:25:30.687Z,2.20
2019-02-28T00:28:02.595Z,2.00
2019-02-28T00:30:57.875Z,2.00
2019-02-28T00:33:31.625Z,1.90
2019-02-28T00:36:19.241Z,1.80
2019-02-28T00:38:52.676Z,1.80
2019-02-28T00:41:24.629Z,1.80
2019-02-28T00:43:57.936Z,1.70
2019-02-28T00:46:29.960Z,1.60
2019-02-28T00:49:02.858Z,1.50
2019-02-28T00:51:36.015Z,1.60
2019-02-28T00:54:09.711Z,1.60
2019-02-28T00:56:42.582Z,1.70
2019-02-28T00:59:15.715Z,1.70
2019-02-28T01:01:48.887Z,1.70
2019-02-28T01:04:20.781Z,1.70
2019-02-28T01:06:52.742Z,1.60
2019-02-28T01:09:30.068Z,1.70
2019-02-28T01:12:00.768Z,1.60
2019-02-28T01:17:46.947Z,1.50
2019-02-28T01:20:20.460Z,1.40
2019-02-28T01:22:55.124Z,1.40
2019-02-28T01:25:28.657Z,1.30
2019-02-28T01:28:02.135Z,1.30
2019-02-28T01:30:37.085Z,1.20
2019-02-28T01:33:10.681Z,1.10
2019-02-28T01:36:01.694Z,1.10
2019-02-28T01:38:36.257Z,1.10
2019-02-28T01:41:11.184Z,1.20
2019-02-28T01:43:46.218Z,1.20
2019-02-28T01:46:20.609Z,1.20
2019-02-28T01:48:54.551Z,1.10
2019-02-28T01:51:35.714Z,1.10
2019-02-28T01:54:06.428Z,1.10
2019-02-28T01:56:39.915Z,1.10
2019-02-28T01:59:13.387Z,1.10
2019-02-28T02:02:06.767Z,1.20
2019-02-28T02:04:43.209Z,1.20
2019-02-28T02:07:16.492Z,1.20
2019-02-28T02:09:50.278Z,1.20
2019-02-28T02:12:24.738Z,1.20
2019-02-28T02:14:59.467Z,1.10
2019-02-28T02:17:35.566Z,1.10
2019-02-28T02:20:11.063Z,1.00
2019-02-28T02:22:45.704Z,1.00
2019-02-28T02:25:17.681Z,0.90
2019-02-28T02:27:53.458Z,0.90
2019-02-28T02:30:25.357Z,1.00
2019-02-28T02:32:59.543Z,0.90
2019-02-28T02:35:31.441Z,0.90
2019-02-28T02:38:04.657Z,0.90
2019-02-28T02:40:39.257Z,0.90
2019-02-28T02:43:12.457Z,0.80
2019-02-28T02:45:44.297Z,0.80
2019-02-28T02:48:18.384Z,0.80
2019-02-28T02:50:51.289Z,0.80
2019-02-28T02:53:24.225Z,0.90
2019-02-28T02:55:56.081Z,0.90
2019-02-28T02:58:28.209Z,0.90
2019-02-28T03:01:00.295Z,0.90
2019-02-28T03:03:33.265Z,0.90
2019-02-28T03:06:12.148Z,0.90
2019-02-28T03:08:41.096Z,0.90
2019-02-28T03:11:15.410Z,0.90
2019-02-28T03:13:47.329Z,0.80
2019-02-28T03:16:19.242Z,0.90
2019-02-28T03:18:56.480Z,0.90
2019-02-28T03:21:50.885Z,0.90
2019-02-28T03:24:18.137Z,0.90
2019-02-28T03:26:51.828Z,0.90
2019-02-28T03:29:25.113Z,0.80
2019-02-28T03:32:00.240Z,0.80
2019-02-28T03:34:32.379Z,0.80
2019-02-28T03:37:04.358Z,0.80
2019-02-28T03:39:36.409Z,0.90
2019-02-28T03:42:08.691Z,0.90
2019-02-28T03:44:42.031Z,0.90
2019-02-28T03:47:13.980Z,0.90
2019-02-28T03:49:49.835Z,0.80
2019-02-28T03:52:22.263Z,0.80
2019-02-28T03:54:54.453Z,0.70
2019-02-28T03:57:29.486Z,0.70
2019-02-28T04:00:01.361Z,0.60
2019-02-28T04:02:36.251Z,0.70
2019-02-28T04:05:09.147Z,0.70
2019-02-28T04:07:42.658Z,0.60
2019-02-28T04:10:16.849Z,0.60
2019-02-28T04:12:49.115Z,0.60
2019-02-28T04:15:21.662Z,0.60
2019-02-28T04:17:53.856Z,0.60
2019-02-28T04:20:25.912Z,0.50
2019-02-28T04:22:59.873Z,0.40
2019-02-28T04:25:32.083Z,0.40
2019-02-28T04:28:04.078Z,0.50
2019-02-28T04:30:42.406Z,0.40
2019-02-28T04:33:10.198Z,0.50
2019-02-28T04:35:43.322Z,0.40
2019-02-28T04:38:20.136Z,0.40
2019-02-28T04:40:48.933Z,0.30
2019-02-28T04:43:21.114Z,0.30
2019-02-28T04:45:57.703Z,0.30
2019-02-28T04:48:29.404Z,0.30
2019-02-28T04:51:02.272Z,0.40
2019-02-28T04:53:35.072Z,0.40
2019-02-28T04:56:11.016Z,0.40
2019-02-28T04:58:40.946Z,0.40
2019-02-28T05:01:13.513Z,0.40
2019-02-28T05:03:48.024Z,0.30
2019-02-28T05:06:21.166Z,0.30
2019-02-28T05:08:55.221Z,0.30
2019-02-28T05:11:30.719Z,0.20
2019-02-28T05:14:02.964Z,0.20
2019-02-28T05:16:36.217Z,0.10
2019-02-28T05:19:09.282Z,0.10
2019-02-28T05:21:42.202Z,0.10
2019-02-28T05:24:14.265Z,0.10
2019-02-28T05:26:46.387Z,0.20
2019-02-28T05:29:18.275Z,0.10
2019-02-28T05:31:50.214Z,0.10
2019-02-28T05:34:22.266Z,0.20
2019-02-28T05:36:54.090Z,0.10
2019-02-28T05:39:28.266Z,0.10
2019-02-28T05:42:01.791Z,0.10
2019-02-28T05:44:33.916Z,0.10
2019-02-28T05:47:10.727Z,0.10
2019-02-28T05:49:42.688Z,0.20
2019-02-28T05:52:14.670Z,0.30
2019-02-28T05:54:47.347Z,0.30
2019-02-28T05:57:21.377Z,0.20
2019-02-28T05:59:54.298Z,0.20
2019-02-28T06:02:26.529Z,0.20
2019-02-28T06:04:58.458Z,0.20
2019-02-28T06:07:31.485Z,0.30
2019-02-28T06:10:04.739Z,0.30
2019-02-28T06:12:40.388Z,0.30
2019-02-28T06:15:11.662Z,0.30
2019-02-28T06:17:44.972Z,0.30
2019-02-28T06:20:18.031Z,0.40
2019-02-28T06:22:50.094Z,0.40
2019-02-28T06:25:25.607Z,0.50
2019-02-28T06:27:57.419Z,0.60
2019-02-28T06:30:29.509Z,0.60
2019-02-28T06:33:03.133Z,0.50
2019-02-28T06:35:35.223Z,0.50
2019-02-28T06:38:08.234Z,0.60
2019-02-28T06:40:42.677Z,0.70
2019-02-28T06:43:14.831Z,0.70
2019-02-28T06:45:47.852Z,0.80
2019-02-28T06:48:25.797Z,0.90
2019-02-28T06:50:56.871Z,1.00
2019-02-28T06:53:32.178Z,1.10
2019-02-28T06:56:04.488Z,1.10
2019-02-28T06:58:36.688Z,1.30
2019-02-28T07:01:08.576Z,1.40
2019-02-28T07:03:42.372Z,1.50
2019-02-28T07:06:14.105Z,1.60
2019-02-28T07:08:47.135Z,1.70
2019-02-28T07:11:19.836Z,1.80
2019-02-28T07:13:53.706Z,2.00
2019-02-28T07:16:25.574Z,2.10
2019-02-28T07:18:57.492Z,2.30
2019-02-28T07:21:29.559Z,2.40
2019-02-28T07:24:02.838Z,2.50
2019-02-28T07:26:35.542Z,2.60
2019-02-28T07:29:11.149Z,2.80
2019-02-28T07:31:44.244Z,2.90
2019-02-28T07:34:22.053Z,3.00
2019-02-28T07:36:56.795Z,3.20
2019-02-28T07:39:29.631Z,3.30
2019-02-28T07:42:03.679Z,3.50
2019-02-28T07:44:38.046Z,3.60
2019-02-28T07:47:17.184Z,3.80
2019-02-28T07:49:50.070Z,4.00
2019-02-28T07:52:21.808Z,4.10
2019-02-28T07:54:55.797Z,4.30
2019-02-28T07:57:28.522Z,4.50
2019-02-28T08:00:00.692Z,4.70
2019-02-28T08:02:35.721Z,4.90
2019-02-28T08:05:09.087Z,5.10
2019-02-28T08:07:50.269Z,5.20
2019-02-28T08:10:20.200Z,5.40
2019-02-28T08:12:52.211Z,5.50
2019-02-28T08:15:26.687Z,5.70
2019-02-28T08:17:58.844Z,5.90
2019-02-28T08:20:34.039Z,6.10
2019-02-28T08:23:05.266Z,6.30
2019-02-28T08:25:39.615Z,6.50
2019-02-28T08:28:13.455Z,6.70
2019-02-28T08:30:47.281Z,6.90
2019-02-28T08:33:19.942Z,7.20
2019-02-28T08:35:54.304Z,7.40
2019-02-28T08:38:30.081Z,7.60
2019-02-28T08:41:03.641Z,7.80
2019-02-28T08:43:36.762Z,8.00
2019-02-28T08:46:12.107Z,8.20
2019-02-28T08:48:43.614Z,8.40
2019-02-28T08:51:16.752Z,8.60
2019-02-28T08:53:51.363Z,8.90
2019-02-28T08:56:23.507Z,9.10
2019-02-28T08:58:55.511Z,9.30
2019-02-28T09:01:27.575Z,9.50
2019-02-28T09:04:04.996Z,9.80
2019-02-28T09:06:34.202Z,10.00
2019-02-28T09:09:09.431Z,10.20
2019-02-28T09:11:44.234Z,10.40
2019-02-28T09:14:17.800Z,10.70
2019-02-28T09:16:52.759Z,11.00
2019-02-28T09:19:24.742Z,11.20
2019-02-28T09:21:56.723Z,11.50
2019-02-28T09:24:29.853Z,11.70
2019-02-28T09:27:04.105Z,11.90
2019-02-28T09:29:36.942Z,12.10
2019-02-28T09:32:10.188Z,12.40
2019-02-28T09:34:41.912Z,12.60
2019-02-28T09:37:13.780Z,12.70
2019-02-28T09:39:45.615Z,12.90
2019-02-28T09:42:17.500Z,13.10
2019-02-28T09:44:49.390Z,13.20
2019-02-28T09:47:23.323Z,13.40
2019-02-28T09:49:55.986Z,13.50
2019-02-28T09:52:27.878Z,13.60
2019-02-28T09:54:59.889Z,13.70
2019-02-28T09:57:31.954Z,13.80
2019-02-28T10:00:03.858Z,13.80
2019-02-28T10:02:37.227Z,13.90
2019-02-28T10:05:11.676Z,13.90
2019-02-28T10:07:43.329Z,14.00
2019-02-28T10:10:17.412Z,14.10
2019-02-28T10:12:50.919Z,14.20
2019-02-28T10:15:22.798Z,14.20
2019-02-28T10:17:54.665Z,14.10
2019-02-28T10:20:28.516Z,14.20
2019-02-28T10:23:00.741Z,14.20
2019-02-28T10:25:32.693Z,14.30
2019-02-28T10:28:04.759Z,14.40
2019-02-28T10:30:36.604Z,14.60
2019-02-28T10:33:08.464Z,14.70
2019-02-28T10:35:40.335Z,14.80
2019-02-28T10:38:12.171Z,15.00
2019-02-28T10:40:44.104Z,15.20
2019-02-28T10:43:16.478Z,15.30
2019-02-28T10:45:48.449Z,15.40
2019-02-28T10:48:20.269Z,15.50
2019-02-28T10:50:52.123Z,15.60
2019-02-28T10:53:23.978Z,15.70
2019-02-28T10:55:57.934Z,15.60
2019-02-28T10:58:29.313Z,15.70
2019-02-28T11:01:01.147Z,15.70
2019-02-28T11:03:33.279Z,15.80
2019-02-28T11:06:05.354Z,15.90
2019-02-28T11:08:37.392Z,16.00
2019-02-28T11:11:10.433Z,16.10
2019-02-28T11:13:43.987Z,16.20
2019-02-28T11:16:16.092Z,16.40
2019-02-28T11:18:48.116Z,16.30
2019-02-28T11:21:19.914Z,16.40
2019-02-28T11:23:51.808Z,16.50
2019-02-28T11:26:24.646Z,16.60
2019-02-28T11:28:56.641Z,16.70
2019-02-28T11:31:28.438Z,16.80
2019-02-28T11:34:00.250Z,16.90
2019-02-28T11:36:34.156Z,17.00
2019-02-28T11:39:07.527Z,17.10
2019-02-28T11:41:39.492Z,17.20
2019-02-28T11:44:12.047Z,17.30
2019-02-28T11:46:45.688Z,17.30
2019-02-28T11:49:17.575Z,17.50
2019-02-28T11:51:52.889Z,17.50
2019-02-28T11:54:24.305Z,17.60
2019-02-28T11:56:56.191Z,17.60
2019-02-28T11:59:28.102Z,17.60
2019-02-28T12:01:59.923Z,17.70
2019-02-28T12:04:31.895Z,17.60
2019-02-28T12:07:03.744Z,17.40
2019-02-28T12:09:35.610Z,17.30
2019-02-28T12:12:10.433Z,17.30
2019-02-28T12:14:41.276Z,17.40
2019-02-28T12:17:15.061Z,17.50
2019-02-28T12:19:47.623Z,17.60
2019-02-28T12:22:20.132Z,17.80
2019-02-28T12:24:52.085Z,17.90
2019-02-28T12:27:24.442Z,18.20
2019-02-28T12:29:57.578Z,18.30
2019-02-28T12:32:29.360Z,18.40
2019-02-28T12:35:02.525Z,18.50
2019-02-28T12:37:34.451Z,18.60
2019-02-28T12:40:10.357Z,18.60
2019-02-28T12:42:41.676Z,18.60
2019-02-28T12:45:21.233Z,18.50
2019-02-28T12:47:52.602Z,18.50
2019-02-28T12:50:33.814Z,18.60
2019-02-28T12:53:05.843Z,18.60
2019-02-28T12:55:40.003Z,18.60
2019-02-28T12:58:12.076Z,18.60
2019-02-28T13:00:44.029Z,18.50
2019-02-28T13:03:19.210Z,18.30
2019-02-28T13:05:49.586Z,18.00
2019-02-28T13:08:21.568Z,17.90
2019-02-28T13:10:53.456Z,17.80
2019-02-28T13:13:27.751Z,17.70
2019-02-28T13:15:58.845Z,17.90
2019-02-28T13:18:30.689Z,18.00
2019-02-28T13:21:05.885Z,18.10
2019-02-28T13:23:36.108Z,18.20
2019-02-28T13:26:08.024Z,18.40
2019-02-28T13:28:39.935Z,18.60
2019-02-28T13:31:11.846Z,18.60
2019-02-28T13:33:43.758Z,18.60
2019-02-28T13:36:18.424Z,18.50
2019-02-28T13:38:49.481Z,18.50
2019-02-28T13:41:26.580Z,18.60
2019-02-28T13:43:59.412Z,18.80
2019-02-28T13:46:33.943Z,18.70
2019-02-28T13:49:04.558Z,18.50
2019-02-28T13:51:40.503Z,18.30
2019-02-28T13:54:09.920Z,18.20
2019-02-28T13:56:41.758Z,18.10
2019-02-28T13:59:13.599Z,17.90
2019-02-28T14:01:45.581Z,17.60
2019-02-28T14:04:19.405Z,17.40
2019-02-28T14:06:52.556Z,17.30
2019-02-28T14:09:24.417Z,17.10
2019-02-28T14:11:56.248Z,17.00
2019-02-28T14:14:28.103Z,16.90
2019-02-28T14:17:01.271Z,16.90
2019-02-28T14:19:34.723Z,16.90
2019-02-28T14:22:08.580Z,17.00
2019-02-28T14:24:40.202Z,17.40
2019-02-28T14:27:12.137Z,17.90
2019-02-28T14:29:48.349Z,18.60
2019-02-28T14:32:17.504Z,19.10
2019-02-28T14:34:49.424Z,19.40
2019-02-28T14:37:21.350Z,19.50
2019-02-28T14:39:53.115Z,19.70
2019-02-28T14:42:24.867Z,19.70
2019-02-28T14:44:57.790Z,19.50
2019-02-28T14:47:29.624Z,19.30
2019-02-28T14:50:01.603Z,19.30
2019-02-28T14:52:35.751Z,19.10
2019-02-28T14:55:07.944Z,19.00
2019-02-28T14:57:40.039Z,18.80
2019-02-28T15:00:17.824Z,18.60
2019-02-28T15:02:50.745Z,18.30
2019-02-28T15:05:23.899Z,18.10
2019-02-28T15:07:55.854Z,17.90
2019-02-28T15:10:28.139Z,17.80
2019-02-28T15:13:01.021Z,17.70
2019-02-28T15:15:33.002Z,17.50
2019-02-28T15:18:05.125Z,17.40
2019-02-28T15:20:37.027Z,17.30
2019-02-28T15:23:08.960Z,17.20
2019-02-28T15:25:40.839Z,17.30
2019-02-28T15:28:13.891Z,17.40
2019-02-28T15:30:46.234Z,17.50
2019-02-28T15:33:18.124Z,17.60
2019-02-28T15:35:50.504Z,17.60
2019-02-28T15:38:22.522Z,17.60
2019-02-28T15:40:55.756Z,17.70
2019-02-28T15:43:27.769Z,17.70
2019-02-28T15:45:59.715Z,17.80
2019-02-28T15:48:34.662Z,17.80
2019-02-28T15:51:05.395Z,17.70
2019-02-28T15:53:37.168Z,17.50
2019-02-28T15:56:13.401Z,17.40
2019-02-28T15:58:43.667Z,17.20
2019-02-28T16:01:15.407Z,17.10
2019-02-28T16:03:48.437Z,17.00
2019-02-28T16:06:20.730Z,16.90
2019-02-28T16:08:52.644Z,16.80
2019-02-28T16:11:24.697Z,16.70
2019-02-28T16:13:57.507Z,16.60
2019-02-28T16:16:29.535Z,16.50
2019-02-28T16:19:01.424Z,16.40
2019-02-28T16:21:33.292Z,16.20
2019-02-28T16:24:05.924Z,16.10
2019-02-28T16:26:37.775Z,16.00
2019-02-28T16:29:10.583Z,15.90
2019-02-28T16:31:42.494Z,15.80
2019-02-28T16:34:14.250Z,15.60
2019-02-28T16:36:46.102Z,15.50
2019-02-28T16:39:19.388Z,15.40
2019-02-28T16:41:51.304Z,15.20
2019-02-28T16:44:23.134Z,15.10
2019-02-28T16:46:55.136Z,15.00
2019-02-28T16:49:27.084Z,14.90
2019-02-28T16:51:58.937Z,14.80
2019-02-28T16:54:30.760Z,14.70
2019-02-28T16:57:02.635Z,14.60
2019-02-28T16:59:34.500Z,14.60
2019-02-28T17:02:06.661Z,14.50
2019-02-28T17:04:38.536Z,14.60
2019-02-28T17:07:10.481Z,14.50
2019-02-28T17:09:43.781Z,14.60
2019-02-28T17:12:34.362Z,14.50
2019-02-28T17:15:12.123Z,14.50
2019-02-28T17:17:50.114Z,14.40
2019-02-28T17:20:22.186Z,14.40
2019-02-28T17:22:54.128Z,14.40
2019-02-28T17:25:26.121Z,14.40
2019-02-28T17:28:05.465Z,14.30
2019-02-28T17:31:14.507Z,14.40
2019-02-28T17:33:46.842Z,14.40
2019-02-28T17:36:20.527Z,14.40
2019-02-28T17:38:52.685Z,14.50
2019-02-28T17:41:26.991Z,14.40
2019-02-28T17:44:45.473Z,14.40
2019-02-28T17:47:53.247Z,14.40
2019-02-28T17:50:56.586Z,14.30
2019-02-28T17:54:03.556Z,14.20
2019-02-28T17:57:22.149Z,14.10
2019-02-28T18:00:43.824Z,13.90
2019-02-28T18:03:27.204Z,13.70
2019-02-28T18:06:39.508Z,13.60
2019-02-28T18:09:34.755Z,13.50
2019-02-28T18:12:40.644Z,13.40
2019-02-28T18:15:37.884Z,13.40
2019-02-28T18:18:51.966Z,13.30
2019-02-28T18:22:01.677Z,13.30
2019-02-28T18:25:18.078Z,13.40
2019-02-28T18:28:39.846Z,13.40
2019-02-28T18:31:14.590Z,13.40
2019-02-28T18:34:09.682Z,13.40
2019-02-28T18:36:48.834Z,13.40
2019-02-28T18:39:22.535Z,13.40
2019-02-28T18:41:54.362Z,13.30
2019-02-28T18:44:27.261Z,13.30
2019-02-28T18:47:02.874Z,13.30
2019-02-28T18:49:48.551Z,13.30
2019-02-28T18:52:23.153Z,13.20
2019-02-28T18:55:05.723Z,13.10
2019-02-28T18:57:31.895Z,13.10
2019-02-28T19:00:04.628Z,13.10
2019-02-28T19:02:43.970Z,13.10
2019-02-28T19:05:17.655Z,13.10
2019-02-28T19:07:50.591Z,13.10
2019-02-28T19:10:23.935Z,13.00
2019-02-28T19:12:58.720Z,13.10
2019-02-28T19:18:38.878Z,13.20
2019-02-28T19:21:11.227Z,13.30
2019-02-28T19:23:44.757Z,13.20
2019-02-28T19:26:18.815Z,13.20
2019-02-28T19:28:50.797Z,13.10
2019-02-28T19:34:29.719Z,13.00
2019-02-28T19:37:12.593Z,12.90
2019-02-28T19:39:49.206Z,12.80
2019-02-28T19:42:24.475Z,12.60
2019-02-28T19:45:17.081Z,12.40
2019-02-28T19:47:59.963Z,12.30
2019-02-28T19:50:37.615Z,12.20
2019-02-28T19:53:09.595Z,12.00
2019-02-28T19:55:43.282Z,11.90
2019-02-28T19:58:27.199Z,11.80
2019-02-28T20:01:00.371Z,11.70
2019-02-28T20:03:33.480Z,11.60
2019-02-28T20:06:06.641Z,11.50
2019-02-28T20:08:58.154Z,11.40
2019-02-28T20:11:53.856Z,11.30
2019-02-28T20:14:41.093Z,11.20
2019-02-28T20:17:26.991Z,11.10
2019-02-28T20:20:01.307Z,10.90
2019-02-28T20:22:34.698Z,10.80
2019-02-28T20:25:10.117Z,10.70
2019-02-28T20:27:42.940Z,10.60
2019-02-28T20:30:17.719Z,10.60
2019-02-28T20:32:49.603Z,10.60
2019-02-28T20:35:26.826Z,10.50
2019-02-28T20:37:59.159Z,10.40
2019-02-28T20:40:33.463Z,10.40
2019-02-28T20:43:06.843Z,10.30
2019-02-28T20:45:40.040Z,10.30
2019-02-28T20:48:11.929Z,10.20
2019-02-28T20:50:46.386Z,10.20
2019-02-28T20:53:20.451Z,10.20
2019-02-28T20:55:53.320Z,10.30
2019-02-28T20:58:25.610Z,10.40
2019-02-28T21:01:00.394Z,10.50
2019-02-28T21:03:33.702Z,10.50
2019-02-28T21:06:06.707Z,10.50
2019-02-28T21:08:39.703Z,10.50
2019-02-28T21:11:12.896Z,10.50
2019-02-28T21:13:45.369Z,10.50
2019-02-28T21:16:17.695Z,10.40
2019-02-28T21:18:50.045Z,10.40
2019-02-28T21:21:24.392Z,10.30
2019-02-28T21:23:56.368Z,10.20
2019-02-28T21:26:29.270Z,10.10
2019-02-28T21:29:04.953Z,10.00
2019-02-28T21:31:38.939Z,10.00
2019-02-28T21:34:11.420Z,9.90
2019-02-28T21:36:44.644Z,9.80
2019-02-28T21:39:16.780Z,9.70
2019-02-28T21:41:51.546Z,9.60
2019-02-28T21:44:26.051Z,9.60
2019-02-28T21:47:01.772Z,9.50
2019-02-28T21:49:35.035Z,9.40
2019-02-28T21:52:07.030Z,9.40
2019-02-28T21:54:40.226Z,9.40
2019-02-28T21:57:14.491Z,9.40
2019-02-28T21:59:47.679Z,9.40
2019-02-28T22:02:19.694Z,9.30
2019-02-28T22:04:53.092Z,9.30
2019-02-28T22:07:26.225Z,9.30
2019-02-28T22:09:58.419Z,9.20
2019-02-28T22:12:31.386Z,9.20
2019-02-28T22:15:04.806Z,9.10
2019-02-28T22:17:38.083Z,9.20
2019-02-28T22:20:12.327Z,9.20
2019-02-28T22:22:44.166Z,9.10
2019-02-28T22:25:24.247Z,9.20
2019-02-28T22:27:56.126Z,9.20
2019-02-28T22:30:40.968Z,9.30
2019-02-28T22:33:19.411Z,9.40
2019-02-28T22:35:54.860Z,9.40
2019-02-28T22:38:26.791Z,9.40
2019-02-28T22:41:01.003Z,9.40
2019-02-28T22:43:34.134Z,9.30
2019-02-28T22:46:08.642Z,9.30
2019-02-28T22:48:41.622Z,9.20
2019-02-28T22:51:14.530Z,9.10
2019-02-28T22:53:47.695Z,9.00
2019-02-28T22:56:20.766Z,9.00
2019-02-28T22:58:53.683Z,9.00
2019-02-28T23:01:27.425Z,9.10
2019-02-28T23:04:00.545Z,9.20
2019-02-28T23:06:33.590Z,9.30
2019-02-28T23:09:08.026Z,9.40
2019-02-28T23:11:40.422Z,9.50
2019-02-28T23:14:14.914Z,9.60
2019-02-28T23:16:47.951Z,9.70
2019-02-28T23:19:21.910Z,9.80
2019-02-28T23:21:56.303Z,9.90
2019-02-28T23:24:29.193Z,9.90
2019-02-28T23:27:19.038Z,9.90
2019-02-28T23:29:57.752Z,10.00
2019-02-28T23:32:39.428Z,10.00
2019-02-28T23:35:19.373Z,10.10
2019-02-28T23:37:52.741Z,10.10
2019-02-28T23:40:25.923Z,10.20
2019-02-28T23:42:57.844Z,10.20
2019-02-28T23:45:31.058Z,10.20
2019-02-28T23:48:03.085Z,10.20
2019-02-28T23:50:35.054Z,10.20
2019-02-28T23:53:08.105Z,10.20
2019-02-28T23:55:40.988Z,10.20
2019-02-28T23:58:14.154Z,10.20
